createdAt,value
2022-11-02T00:00:51.007Z,11.40
2022-11-02T00:05:55.853Z,12.75
2022-11-02T00:10:59.400Z,14.85
2022-11-02T00:16:04.179Z,13.40
2022-11-02T00:21:09.291Z,14.43
2022-11-02T00:26:13.007Z,11.95
2022-11-02T00:31:16.833Z,13.95
2022-11-02T00:36:22.112Z,14.13
2022-11-02T00:41:25.793Z,15.38
2022-11-02T00:46:29.276Z,15.15
2022-11-02T00:51:34.246Z,12.40
2022-11-02T00:56:39.120Z,12.57
2022-11-02T01:01:47.324Z,13.43
2022-11-02T01:06:52.321Z,13.43
2022-11-02T01:11:55.854Z,13.27
2022-11-02T01:16:59.373Z,16.75
2022-11-02T01:22:04.366Z,13.48
2022-11-02T01:27:07.959Z,13.13
2022-11-02T01:32:11.392Z,11.68
2022-11-02T01:37:16.263Z,9.73
2022-11-02T01:42:22.693Z,12.68
2022-11-02T01:47:31.298Z,12.27
2022-11-02T01:52:38.779Z,11.20
2022-11-02T01:57:47.210Z,13.43
2022-11-02T02:02:58.236Z,11.98
2022-11-02T02:08:07.688Z,10.77
2022-11-02T02:13:12.083Z,11.32
2022-11-02T02:18:27.419Z,10.47
2022-11-02T02:24:19.502Z,12.10
2022-11-02T02:29:30.279Z,9.40
2022-11-02T02:34:42.831Z,10.23
2022-11-02T02:39:53.369Z,10.80
2022-11-02T02:45:07.083Z,11.00
2022-11-02T02:50:18.525Z,10.23
2022-11-02T02:55:28.048Z,9.25
2022-11-02T03:00:36.189Z,10.68
2022-11-02T03:05:40.251Z,10.93
2022-11-02T03:10:54.680Z,10.15
2022-11-02T03:16:05.703Z,10.00
2022-11-02T03:21:21.797Z,9.20
2022-11-02T03:26:34.544Z,11.52
2022-11-02T03:31:46.367Z,8.40
2022-11-02T03:37:01.882Z,8.60
2022-11-02T03:42:06.293Z,8.73
2022-11-02T03:47:17.496Z,9.15
2022-11-02T03:52:26.192Z,9.85
2022-11-02T03:57:40.457Z,8.32
2022-11-02T04:02:49.119Z,8.63
2022-11-02T04:08:13.034Z,9.18
2022-11-02T04:13:34.565Z,8.77
2022-11-02T04:18:57.237Z,7.85
2022-11-02T04:24:19.279Z,9.57
2022-11-02T04:29:24.090Z,8.15
2022-11-02T04:34:29.160Z,6.85
2022-11-02T04:39:33.092Z,7.13
2022-11-02T04:44:36.722Z,8.13
2022-11-02T04:49:52.333Z,8.05
2022-11-02T04:54:56.462Z,7.45
2022-11-02T05:00:00.035Z,8.50
2022-11-02T05:05:08.053Z,6.50
2022-11-02T05:10:12.771Z,8.43
2022-11-02T05:15:17.479Z,7.97
2022-11-02T05:20:23.395Z,6.95
2022-11-02T05:25:27.062Z,8.27
2022-11-02T05:30:32.287Z,8.85
2022-11-02T05:35:38.170Z,6.72
2022-11-02T05:40:41.997Z,6.07
2022-11-02T05:45:55.116Z,7.22
2022-11-02T05:51:01.909Z,6.18
2022-11-02T05:56:09.516Z,6.20
2022-11-02T06:06:17.979Z,8.65
2022-11-02T06:11:21.653Z,8.73
2022-11-02T06:16:25.392Z,6.72
2022-11-02T06:21:30.362Z,6.95
2022-11-02T06:26:33.832Z,7.10
2022-11-02T06:31:37.533Z,5.78
2022-11-02T06:36:42.490Z,7.57
2022-11-02T06:41:46.005Z,7.63
2022-11-02T06:46:49.500Z,6.10
2022-11-02T06:51:54.778Z,6.25
2022-11-02T06:56:58.639Z,6.68
2022-11-02T07:02:02.187Z,7.85
2022-11-02T07:07:07.409Z,5.47
2022-11-02T07:12:10.913Z,7.05
2022-11-02T07:17:14.433Z,6.35
2022-11-02T07:22:19.388Z,10.93
2022-11-02T07:27:22.854Z,12.32
2022-11-02T07:32:26.319Z,10.23
2022-11-02T07:37:31.553Z,9.95
2022-11-02T07:42:35.473Z,10.85
2022-11-02T07:47:45.859Z,13.32
2022-11-02T07:52:53.776Z,13.23
2022-11-02T07:57:59.960Z,10.90
2022-11-02T08:03:05.942Z,10.77
2022-11-02T08:08:15.396Z,16.55
2022-11-02T08:13:22.363Z,22.88
2022-11-02T08:18:28.075Z,16.50
2022-11-02T08:23:32.872Z,14.57
2022-11-02T08:28:40.005Z,15.15
2022-11-02T08:33:43.678Z,14.40
2022-11-02T08:38:48.576Z,11.30
2022-11-02T08:43:52.200Z,15.93
2022-11-02T08:48:55.637Z,12.52
2022-11-02T08:54:00.486Z,9.90
2022-11-02T08:59:03.984Z,12.07
2022-11-02T09:04:07.496Z,13.77
2022-11-02T09:09:12.796Z,11.93
2022-11-02T09:14:16.642Z,10.32
2022-11-02T09:19:20.178Z,9.55
2022-11-02T09:24:25.034Z,11.32
2022-11-02T09:29:28.675Z,12.73
2022-11-02T09:34:32.173Z,12.15
2022-11-02T09:39:37.041Z,11.68
2022-11-02T09:44:50.692Z,12.75
2022-11-02T09:49:55.785Z,11.57
2022-11-02T09:55:05.029Z,11.32
2022-11-02T10:00:15.686Z,10.57
2022-11-02T10:05:33.989Z,12.98
2022-11-02T10:10:48.250Z,11.50
2022-11-02T10:15:57.559Z,12.88
2022-11-02T10:21:07.043Z,11.88
2022-11-02T10:26:20.826Z,11.27
2022-11-02T10:31:30.625Z,13.90
2022-11-02T10:36:50.460Z,10.77
2022-11-02T10:42:22.965Z,10.48
2022-11-02T10:47:28.909Z,11.32
2022-11-02T10:52:39.692Z,11.60
2022-11-02T10:57:44.733Z,10.82
2022-11-02T11:02:48.876Z,9.30
2022-11-02T11:07:52.325Z,11.45
2022-11-02T11:12:57.957Z,8.55
2022-11-02T11:23:34.691Z,13.45
2022-11-02T11:28:53.916Z,7.82
2022-11-02T11:34:00.243Z,9.85
2022-11-02T11:39:08.517Z,11.82
2022-11-02T11:44:16.247Z,11.40
2022-11-02T11:54:57.183Z,10.27
2022-11-02T12:00:26.370Z,10.80
2022-11-02T12:05:30.069Z,10.65
2022-11-02T12:11:05.188Z,10.45
2022-11-02T12:16:22.570Z,10.93
2022-11-02T12:21:48.383Z,8.80
2022-11-02T12:27:12.124Z,10.23
2022-11-02T12:32:48.744Z,11.07
2022-11-02T12:38:14.943Z,7.77
2022-11-02T12:43:41.098Z,9.65
2022-11-02T12:49:03.022Z,11.80
2022-11-02T12:54:13.403Z,7.03
2022-11-02T12:59:23.883Z,8.20
2022-11-02T13:04:39.670Z,9.05
2022-11-02T13:10:02.154Z,9.30
2022-11-02T13:15:12.087Z,7.90
2022-11-02T13:20:23.086Z,10.60
2022-11-02T13:25:34.517Z,9.23
2022-11-02T13:30:38.415Z,9.02
2022-11-02T13:35:43.470Z,9.93
2022-11-02T13:40:53.463Z,9.38
2022-11-02T13:46:31.576Z,8.98
2022-11-02T13:51:42.512Z,8.63
2022-11-02T13:56:47.402Z,7.28
2022-11-02T14:01:54.712Z,8.68
2022-11-02T14:07:04.002Z,8.27
2022-11-02T14:12:39.672Z,8.10
2022-11-02T14:18:02.311Z,5.80
2022-11-02T14:23:40.871Z,9.10
2022-11-02T14:28:45.497Z,7.70
2022-11-02T14:34:11.219Z,8.07
2022-11-02T14:39:24.980Z,6.82
2022-11-02T14:45:07.239Z,8.85
2022-11-02T14:50:19.588Z,6.93
2022-11-02T14:55:40.449Z,5.90
2022-11-02T15:06:06.972Z,6.20
2022-11-02T15:11:49.448Z,7.00
2022-11-02T15:16:54.208Z,6.35
2022-11-02T15:22:35.849Z,6.65
2022-11-02T15:27:44.843Z,5.82
2022-11-02T15:33:00.406Z,7.28
2022-11-02T15:38:30.504Z,7.60
2022-11-02T15:44:02.490Z,6.15
2022-11-02T15:49:29.034Z,6.15
2022-11-02T15:55:02.253Z,6.28
2022-11-02T16:00:18.840Z,5.57
2022-11-02T16:05:26.701Z,8.85
2022-11-02T16:10:34.534Z,7.50
2022-11-02T16:15:42.267Z,6.25
2022-11-02T16:25:52.096Z,8.57
2022-11-02T16:31:17.325Z,7.13
2022-11-02T16:36:25.007Z,5.97
2022-11-02T16:41:32.103Z,6.72
2022-11-02T16:46:49.034Z,6.10
2022-11-02T16:51:56.139Z,6.47
2022-11-02T16:57:11.217Z,6.00
2022-11-02T17:02:17.227Z,5.97
2022-11-02T17:07:26.761Z,6.47
2022-11-02T17:12:37.840Z,6.38
2022-11-02T17:17:42.971Z,7.18
2022-11-02T17:22:59.367Z,6.25
2022-11-02T17:28:06.677Z,5.50
2022-11-02T17:33:27.677Z,7.03
2022-11-02T17:38:31.250Z,7.30
2022-11-02T17:43:35.058Z,5.60
2022-11-02T17:48:40.117Z,6.47
2022-11-02T17:53:46.238Z,4.75
2022-11-02T17:58:49.687Z,6.55
2022-11-02T18:03:54.652Z,8.43
2022-11-02T18:09:14.678Z,6.00
2022-11-02T18:14:18.430Z,6.15
2022-11-02T18:19:23.312Z,6.78
2022-11-02T18:24:26.806Z,10.38
2022-11-02T18:29:30.626Z,5.72
2022-11-02T18:34:35.539Z,6.40
2022-11-02T18:39:39.094Z,8.73
2022-11-02T18:44:43.837Z,7.38
2022-11-02T18:49:48.793Z,7.60
2022-11-02T18:54:52.997Z,7.80
2022-11-02T18:59:56.629Z,6.22
2022-11-02T19:05:01.502Z,7.28
2022-11-02T19:10:05.749Z,7.75
2022-11-02T19:15:10.835Z,6.35
2022-11-02T19:20:15.885Z,6.65
2022-11-02T19:25:19.594Z,6.80
2022-11-02T19:30:23.126Z,5.68
2022-11-02T19:35:27.969Z,6.90
2022-11-02T19:40:31.460Z,7.78
2022-11-02T19:45:35.076Z,10.02
2022-11-02T19:50:40.013Z,8.50
2022-11-02T19:55:53.045Z,7.80
2022-11-02T20:00:56.885Z,7.60
2022-11-02T20:06:03.095Z,6.60
2022-11-02T20:11:10.997Z,6.30
2022-11-02T20:16:17.773Z,7.68
2022-11-02T20:21:31.519Z,8.53
2022-11-02T20:26:40.843Z,11.02
2022-11-02T20:31:44.592Z,8.98
2022-11-02T20:36:49.999Z,9.52
2022-11-02T20:41:56.001Z,11.13
2022-11-02T20:46:59.527Z,10.77
2022-11-02T20:52:04.386Z,15.68
2022-11-02T20:57:07.923Z,13.93
2022-11-02T21:02:12.776Z,15.05
2022-11-02T21:07:18.236Z,12.57
2022-11-02T21:12:39.224Z,11.95
2022-11-02T21:17:43.093Z,8.45
2022-11-02T21:22:51.465Z,11.07
2022-11-02T21:27:55.573Z,10.45
2022-11-02T21:33:00.022Z,11.35
2022-11-02T21:38:07.829Z,7.45
2022-11-02T21:43:11.486Z,7.88
2022-11-02T21:48:15.008Z,10.05
2022-11-02T21:53:19.844Z,8.32
2022-11-02T21:58:23.287Z,10.32
2022-11-02T22:03:26.761Z,14.20
2022-11-02T22:08:40.655Z,10.65
2022-11-02T22:13:45.493Z,7.40
2022-11-02T22:18:50.202Z,8.48
2022-11-02T22:23:56.515Z,8.55
2022-11-02T22:29:01.061Z,7.10
2022-11-02T22:34:08.036Z,7.70
2022-11-02T22:39:15.281Z,7.63
2022-11-02T22:44:22.242Z,7.80
2022-11-02T22:49:25.721Z,9.20
2022-11-02T22:54:30.534Z,8.13
2022-11-02T22:59:33.967Z,7.82
2022-11-02T23:04:37.745Z,7.30
2022-11-02T23:09:42.529Z,7.65
2022-11-02T23:14:45.987Z,11.25
2022-11-02T23:19:49.483Z,8.25
2022-11-02T23:25:12.829Z,6.35
2022-11-02T23:30:30.591Z,8.60
2022-11-02T23:40:56.545Z,9.18
2022-11-02T23:45:59.992Z,6.63
2022-11-02T23:51:20.300Z,7.88
